createdAt,value
2018-08-09T00:00:33.943Z,99.99
2018-08-09T00:01:34.048Z,99.99
2018-08-09T00:02:33.992Z,99.99
2018-08-09T00:04:33.786Z,99.99
2018-08-09T00:05:34.082Z,99.99
2018-08-09T00:06:34.098Z,99.99
2018-08-09T00:07:33.872Z,99.99
2018-08-09T00:08:48.814Z,99.99
2018-08-09T00:09:34.179Z,99.99
2018-08-09T00:10:34.203Z,99.99
2018-08-09T00:11:34.231Z,99.99
2018-08-09T00:12:34.257Z,99.99
2018-08-09T00:13:34.284Z,99.99
2018-08-09T00:14:34.057Z,99.99
2018-08-09T00:15:34.336Z,99.99
2018-08-09T00:16:34.108Z,99.99
2018-08-09T00:17:34.389Z,99.99
2018-08-09T00:18:34.418Z,99.99
2018-08-09T00:19:34.447Z,99.99
2018-08-09T00:20:34.470Z,99.99
2018-08-09T00:21:34.493Z,99.99
2018-08-09T00:22:34.520Z,99.99
2018-08-09T00:23:34.546Z,99.99
2018-08-09T00:24:34.576Z,99.99
2018-08-09T00:25:34.606Z,99.99
2018-08-09T00:26:34.627Z,99.99
2018-08-09T00:27:34.662Z,99.99
2018-08-09T00:28:34.681Z,99.99
2018-08-09T00:29:34.704Z,99.99
2018-08-09T00:30:34.475Z,99.99
2018-08-09T00:31:34.758Z,99.55
2018-08-09T00:32:34.528Z,98.93
2018-08-09T00:33:34.815Z,99.99
2018-08-09T00:35:34.867Z,99.99
2018-08-09T00:36:34.640Z,99.69
2018-08-09T00:37:34.918Z,98.54
2018-08-09T00:38:34.952Z,97.33
2018-08-09T00:39:34.968Z,98.58
2018-08-09T00:40:49.659Z,96.51
2018-08-09T00:41:35.026Z,95.93
2018-08-09T00:42:35.050Z,96.51
2018-08-09T00:43:35.077Z,97.33
2018-08-09T00:44:35.101Z,98.73
2018-08-09T00:45:34.872Z,97.04
2018-08-09T00:46:35.154Z,96.89
2018-08-09T00:47:35.185Z,94.29
2018-08-09T00:48:35.213Z,93.9
2018-08-09T00:49:35.240Z,95.35
2018-08-09T00:51:35.340Z,96.26
2018-08-09T00:52:35.311Z,96.66
2018-08-09T00:53:35.339Z,96.46
2018-08-09T00:54:35.365Z,95.68
2018-08-09T00:55:35.395Z,95.3
2018-08-09T00:56:50.081Z,95.01
2018-08-09T00:57:35.186Z,93.76
2018-08-09T00:58:35.469Z,91.44
2018-08-09T00:59:35.503Z,91.83
2018-08-09T01:00:35.522Z,91.83
2018-08-09T01:02:35.673Z,93.08
2018-08-09T01:03:35.603Z,93.76
2018-08-09T01:05:35.654Z,92.6
2018-08-09T01:06:35.683Z,93.56
2018-08-09T01:07:35.707Z,93.76
2018-08-09T01:08:35.734Z,91.83
2018-08-09T01:09:35.758Z,91.05
2018-08-09T01:10:35.785Z,90.67
2018-08-09T01:11:35.555Z,90.57
2018-08-09T01:12:50.501Z,92.11
2018-08-09T01:14:35.891Z,92.5
2018-08-09T01:15:35.917Z,94.04
2018-08-09T01:16:35.950Z,95.3
2018-08-09T01:17:35.970Z,95.11
2018-08-09T01:18:35.739Z,95.68
2018-08-09T01:19:36.020Z,97.04
2018-08-09T01:20:36.047Z,94.53
2018-08-09T01:21:36.078Z,92.41
2018-08-09T01:23:36.127Z,92.41
2018-08-09T01:24:36.208Z,93.08
2018-08-09T01:25:36.184Z,91.78
2018-08-09T01:26:36.211Z,92.16
2018-08-09T01:27:36.229Z,92.65
2018-08-09T01:28:50.918Z,91.88
2018-08-09T01:29:36.026Z,92.46
2018-08-09T01:30:36.309Z,92.46
2018-08-09T01:31:36.343Z,93.52
2018-08-09T01:32:36.105Z,94.1
2018-08-09T01:33:36.486Z,94.1
2018-08-09T01:34:36.156Z,94
2018-08-09T01:35:36.442Z,94.68
2018-08-09T01:36:36.466Z,94.73
2018-08-09T01:37:36.491Z,94.77
2018-08-09T01:38:36.259Z,94.77
2018-08-09T01:39:36.543Z,95.35
2018-08-09T01:40:36.568Z,95.45
2018-08-09T01:41:36.336Z,96.36
2018-08-09T01:42:36.619Z,95.5
2018-08-09T01:43:51.312Z,96.46
2018-08-09T01:44:36.673Z,96.84
2018-08-09T01:45:36.699Z,97.14
2018-08-09T01:46:36.727Z,96.84
2018-08-09T01:47:36.753Z,97.14
2018-08-09T01:48:36.827Z,97.42
2018-08-09T01:49:36.803Z,96.75
2018-08-09T01:50:36.831Z,96.94
2018-08-09T01:51:36.854Z,96.75
2018-08-09T01:52:36.885Z,97.09
2018-08-09T01:54:36.931Z,97.62
2018-08-09T01:55:36.959Z,97.33
2018-08-09T01:56:36.984Z,97.14
2018-08-09T01:57:36.750Z,97.33
2018-08-09T01:58:36.778Z,97.42
2018-08-09T01:59:37.058Z,98
2018-08-09T02:00:37.085Z,98.1
2018-08-09T02:01:37.114Z,98.1
2018-08-09T02:02:37.136Z,98.97
2018-08-09T02:04:37.259Z,98.87
2018-08-09T02:05:37.213Z,98.97
2018-08-09T02:07:37.310Z,99.45
2018-08-09T02:08:37.352Z,99.07
2018-08-09T02:09:37.316Z,99.26
2018-08-09T02:10:37.345Z,98.97
2018-08-09T02:11:37.368Z,99.55
2018-08-09T02:12:37.395Z,99.99
2018-08-09T02:13:37.427Z,99.65
2018-08-09T02:14:37.463Z,99.99
2018-08-09T02:15:52.133Z,99.99
2018-08-09T02:16:37.493Z,99.93
2018-08-09T02:17:37.523Z,99.99
2018-08-09T02:18:37.548Z,99.99
2018-08-09T02:19:37.574Z,99.99
2018-08-09T02:20:37.598Z,99.99
2018-08-09T02:21:37.625Z,99.99
2018-08-09T02:22:37.649Z,99.99
2018-08-09T02:23:37.680Z,99.99
2018-08-09T02:24:37.708Z,99.99
2018-08-09T02:25:37.733Z,99.99
2018-08-09T02:26:37.753Z,99.99
2018-08-09T02:27:37.776Z,99.99
2018-08-09T02:28:37.805Z,99.99
2018-08-09T02:29:37.829Z,99.99
2018-08-09T02:30:37.857Z,99.99
2018-08-09T02:31:52.545Z,99.99
2018-08-09T02:32:37.916Z,99.99
2018-08-09T02:33:37.932Z,99.99
2018-08-09T02:34:37.957Z,99.99
2018-08-09T02:35:37.986Z,99.99
2018-08-09T02:36:38.008Z,99.99
2018-08-09T02:37:38.033Z,99.99
2018-08-09T02:38:38.061Z,99.99
2018-08-09T02:39:38.089Z,99.99
2018-08-09T02:40:38.112Z,99.99
2018-08-09T02:41:38.136Z,99.99
2018-08-09T02:42:38.160Z,99.99
2018-08-09T02:43:38.187Z,99.99
2018-08-09T02:44:38.214Z,99.99
2018-08-09T02:45:38.236Z,99.99
2018-08-09T02:46:38.401Z,99.99
2018-08-09T02:47:52.952Z,99.99
2018-08-09T02:48:38.312Z,99.99
2018-08-09T02:49:38.368Z,99.99
2018-08-09T02:50:38.365Z,99.99
2018-08-09T02:51:38.395Z,99.99
2018-08-09T02:52:38.161Z,99.99
2018-08-09T02:53:38.449Z,99.99
2018-08-09T02:54:38.471Z,99.99
2018-08-09T02:55:38.493Z,99.99
2018-08-09T02:57:38.606Z,99.99
2018-08-09T02:58:38.318Z,99.99
2018-08-09T02:59:38.335Z,99.99
2018-08-09T03:00:38.623Z,99.99
2018-08-09T03:01:38.649Z,99.99
2018-08-09T03:02:38.415Z,99.99
2018-08-09T03:03:53.363Z,99.99
2018-08-09T03:04:38.725Z,99.99
2018-08-09T03:05:38.747Z,99.99
2018-08-09T03:06:38.774Z,99.99
2018-08-09T03:07:38.810Z,99.99
2018-08-09T03:08:38.824Z,99.99
2018-08-09T03:09:38.849Z,99.99
2018-08-09T03:10:38.875Z,99.99
2018-08-09T03:11:38.906Z,99.99
2018-08-09T03:12:38.924Z,99.99
2018-08-09T03:13:38.948Z,99.99
2018-08-09T03:14:38.978Z,99.99
2018-08-09T03:15:39.001Z,99.99
2018-08-09T03:16:39.030Z,99.99
2018-08-09T03:17:39.052Z,99.99
2018-08-09T03:18:53.745Z,99.99
2018-08-09T03:19:38.847Z,99.99
2018-08-09T03:20:39.130Z,99.99
2018-08-09T03:21:39.157Z,99.99
2018-08-09T03:22:38.924Z,99.99
2018-08-09T03:23:39.207Z,99.99
2018-08-09T03:24:39.230Z,99.99
2018-08-09T03:26:39.287Z,99.99
2018-08-09T03:27:39.049Z,99.99
2018-08-09T03:28:39.329Z,99.99
2018-08-09T03:29:39.358Z,99.99
2018-08-09T03:30:39.389Z,99.99
2018-08-09T03:32:39.178Z,99.99
2018-08-09T03:33:39.461Z,99.99
2018-08-09T03:34:39.486Z,99.99
2018-08-09T03:35:39.513Z,99.99
2018-08-09T03:36:39.535Z,99.99
2018-08-09T03:37:39.563Z,99.99
2018-08-09T03:38:39.327Z,99.99
2018-08-09T03:39:39.613Z,99.99
2018-08-09T03:40:39.639Z,99.99
2018-08-09T03:41:39.661Z,99.99
2018-08-09T03:42:39.688Z,99.99
2018-08-09T03:44:39.480Z,99.99
2018-08-09T03:45:39.764Z,99.99
2018-08-09T03:46:39.790Z,99.99
2018-08-09T03:47:39.815Z,99.99
2018-08-09T03:48:39.848Z,99.99
2018-08-09T03:49:39.866Z,99.99
2018-08-09T03:50:54.551Z,99.99
2018-08-09T03:51:40.016Z,99.99
2018-08-09T03:52:39.942Z,99.99
2018-08-09T03:53:39.970Z,99.99
2018-08-09T03:54:39.991Z,99.99
2018-08-09T03:55:40.019Z,99.99
2018-08-09T03:56:40.044Z,99.99
2018-08-09T03:57:40.065Z,99.99
2018-08-09T03:58:40.096Z,99.99
2018-08-09T03:59:40.163Z,99.99
2018-08-09T04:01:40.173Z,99.99
2018-08-09T04:02:40.196Z,99.99
2018-08-09T04:03:40.220Z,99.99
2018-08-09T04:04:40.251Z,99.99
2018-08-09T04:05:40.271Z,99.99
2018-08-09T04:06:54.958Z,99.99
2018-08-09T04:07:40.322Z,99.99
2018-08-09T04:08:40.395Z,99.99
2018-08-09T04:09:40.371Z,99.99
2018-08-09T04:10:40.397Z,99.99
2018-08-09T04:11:40.210Z,99.99
2018-08-09T04:12:40.547Z,99.99
2018-08-09T04:13:40.475Z,99.99
2018-08-09T04:15:40.522Z,99.99
2018-08-09T04:16:40.292Z,99.99
2018-08-09T04:17:40.317Z,99.99
2018-08-09T04:18:40.600Z,99.99
2018-08-09T04:19:40.368Z,99.99
2018-08-09T04:20:40.655Z,99.99
2018-08-09T04:21:40.677Z,99.99
2018-08-09T04:22:55.471Z,99.99
2018-08-09T04:23:40.726Z,99.99
2018-08-09T04:24:40.755Z,99.99
2018-08-09T04:25:40.781Z,99.99
2018-08-09T04:26:41.001Z,99.99
2018-08-09T04:27:40.573Z,99.99
2018-08-09T04:28:40.952Z,99.99
2018-08-09T04:29:40.881Z,99.99
2018-08-09T04:30:40.647Z,99.99
2018-08-09T04:33:40.980Z,99.99
2018-08-09T04:34:41.006Z,99.99
2018-08-09T04:35:41.033Z,99.99
2018-08-09T04:36:41.062Z,99.99
2018-08-09T04:37:41.087Z,99.99
2018-08-09T04:38:55.873Z,99.99
2018-08-09T04:39:41.139Z,99.99
2018-08-09T04:40:41.162Z,99.99
2018-08-09T04:41:41.189Z,99.99
2018-08-09T04:42:41.214Z,99.99
2018-08-09T04:43:40.981Z,99.6
2018-08-09T04:44:41.264Z,99.74
2018-08-09T04:45:41.294Z,99.21
2018-08-09T04:46:41.316Z,99.88
2018-08-09T04:47:41.085Z,99.21
2018-08-09T04:49:41.394Z,98.78
2018-08-09T04:50:41.417Z,98.3
2018-08-09T04:51:41.444Z,98.1
2018-08-09T04:52:41.470Z,97.62
2018-08-09T04:53:56.159Z,97.33
2018-08-09T04:54:41.523Z,97.52
2018-08-09T04:55:41.549Z,97.81
2018-08-09T04:56:41.573Z,97.52
2018-08-09T04:57:41.599Z,96.36
2018-08-09T04:58:41.636Z,96.08
2018-08-09T04:59:41.397Z,95.64
2018-08-09T05:00:41.679Z,93.99
2018-08-09T05:01:41.708Z,91.72
2018-08-09T05:02:41.474Z,89.93
2018-08-09T05:03:41.756Z,88.81
2018-08-09T05:05:41.555Z,86.58
2018-08-09T05:06:41.838Z,85.13
2018-08-09T05:07:41.863Z,85.07
2018-08-09T05:08:41.890Z,84.49
2018-08-09T05:09:41.923Z,84.93
2018-08-09T05:10:41.689Z,83.48
2018-08-09T05:11:41.974Z,83.91
2018-08-09T05:12:42.004Z,82.94
2018-08-09T05:14:41.800Z,81.91
2018-08-09T05:15:42.085Z,81.33
2018-08-09T05:16:42.114Z,79.72
2018-08-09T05:17:42.145Z,79.82
2018-08-09T05:18:42.174Z,79.24
2018-08-09T05:19:42.198Z,78.94
2018-08-09T05:20:42.229Z,77.47
2018-08-09T05:22:42.286Z,73.02
2018-08-09T05:23:42.317Z,74.15
2018-08-09T05:24:42.085Z,73.91
2018-08-09T05:25:57.037Z,73.72
2018-08-09T05:26:42.407Z,73.08
2018-08-09T05:27:42.438Z,72.24
2018-08-09T05:28:42.466Z,72.33
2018-08-09T05:29:42.493Z,71.11
2018-08-09T05:30:42.521Z,69.97
2018-08-09T05:31:42.297Z,69.13
2018-08-09T05:32:42.583Z,67.22
2018-08-09T05:33:42.617Z,67.99
2018-08-09T05:34:42.644Z,68.29
2018-08-09T05:35:42.677Z,69
2018-08-09T05:36:42.707Z,71.88
2018-08-09T05:37:42.741Z,72.98
2018-08-09T05:38:42.769Z,74.21
2018-08-09T05:39:42.543Z,73.82
2018-08-09T05:40:42.833Z,71.26
2018-08-09T05:41:57.529Z,69.87
2018-08-09T05:42:42.896Z,70.04
2018-08-09T05:43:42.923Z,70.2
2018-08-09T05:44:42.701Z,72.04
2018-08-09T05:45:43.001Z,71.23
2018-08-09T05:46:43.021Z,71.23
2018-08-09T05:47:43.052Z,71.23
2018-08-09T05:48:43.084Z,71.36
2018-08-09T05:49:43.118Z,70.49
2018-08-09T05:50:43.146Z,69.35
2018-08-09T05:52:43.342Z,65.5
2018-08-09T05:53:42.989Z,63.9
2018-08-09T05:54:43.275Z,65.2
2018-08-09T05:55:43.052Z,65.36
2018-08-09T05:56:43.085Z,64.23
2018-08-09T05:57:58.037Z,65.78
2018-08-09T05:58:43.408Z,66.79
2018-08-09T05:59:43.440Z,65.82
2018-08-09T06:00:43.474Z,66.05
2018-08-09T06:01:43.248Z,63.54
2018-08-09T06:02:43.543Z,63.38
2018-08-09T06:03:43.569Z,64.59
2018-08-09T06:04:43.603Z,64.49
2018-08-09T06:05:43.827Z,65.26
2018-08-09T06:06:43.413Z,64.07
2018-08-09T06:08:43.744Z,64.32
2018-08-09T06:09:43.779Z,61.56
2018-08-09T06:10:43.546Z,60.06
2018-08-09T06:11:43.579Z,58.91
2018-08-09T06:12:43.869Z,58.26
2018-08-09T06:13:58.569Z,56.92
2018-08-09T06:14:43.937Z,56.65
2018-08-09T06:15:43.971Z,57.4
2018-08-09T06:16:44.006Z,58.36
2018-08-09T06:17:44.039Z,57.84
2018-08-09T06:18:44.145Z,58.45
2018-08-09T06:19:44.108Z,57.48
2018-08-09T06:20:44.143Z,57.48
2018-08-09T06:21:44.179Z,58.33
2018-08-09T06:22:44.215Z,58.98
2018-08-09T06:23:44.246Z,59.44
2018-08-09T06:24:44.281Z,58.3
2018-08-09T06:25:44.440Z,58.98
2018-08-09T06:26:44.512Z,59.54
2018-08-09T06:27:44.385Z,58.27
2018-08-09T06:28:59.082Z,57.81
2018-08-09T06:29:44.454Z,58.95
2018-08-09T06:30:44.497Z,59.8
2018-08-09T06:31:44.523Z,60.85
2018-08-09T06:32:44.555Z,60.46
2018-08-09T06:34:44.368Z,61.21
2018-08-09T06:36:44.693Z,61.04
2018-08-09T06:37:44.744Z,60.19
2018-08-09T06:38:44.763Z,60.49
2018-08-09T06:40:44.576Z,62.35
2018-08-09T06:41:44.869Z,63.29
2018-08-09T06:42:44.903Z,64.04
2018-08-09T06:43:44.940Z,63.29
2018-08-09T06:44:44.979Z,63.32
2018-08-09T06:45:45.018Z,61.66
2018-08-09T06:46:45.042Z,61.69
2018-08-09T06:47:45.219Z,61.99
2018-08-09T06:48:45.111Z,60.65
2018-08-09T06:49:45.145Z,60.85
2018-08-09T06:50:45.188Z,60.65
2018-08-09T06:51:45.217Z,60.13
2018-08-09T06:52:44.995Z,60.13
2018-08-09T06:53:45.292Z,58.95
2018-08-09T06:54:45.321Z,60.03
2018-08-09T06:55:45.357Z,60.13
2018-08-09T06:56:45.393Z,59.83
2018-08-09T06:57:45.429Z,60.68
2018-08-09T06:58:45.461Z,60.55
2018-08-09T06:59:45.501Z,59.83
2018-08-09T07:01:00.195Z,58.5
2018-08-09T07:01:45.568Z,58.23
2018-08-09T07:02:45.600Z,59.5
2018-08-09T07:03:45.376Z,61.36
2018-08-09T07:04:45.673Z,60.94
2018-08-09T07:05:45.705Z,60.19
2018-08-09T07:06:45.742Z,59.05
2018-08-09T07:07:45.517Z,58.3
2018-08-09T07:08:45.811Z,58.59
2018-08-09T07:09:45.851Z,60.06
2018-08-09T07:10:45.882Z,60.88
2018-08-09T07:11:45.917Z,59.51
2018-08-09T07:12:46.054Z,59.18
2018-08-09T07:13:45.989Z,59.77
2018-08-09T07:14:46.022Z,60.13
2018-08-09T07:15:46.062Z,60.29
2018-08-09T07:17:00.758Z,60.19
2018-08-09T07:17:46.131Z,60.81
2018-08-09T07:18:46.167Z,60.19
2018-08-09T07:19:46.201Z,61.07
2018-08-09T07:20:46.236Z,60.65
2018-08-09T07:21:46.279Z,60.88
2018-08-09T07:22:46.307Z,61.27
2018-08-09T07:23:46.343Z,60.03
2018-08-09T07:25:46.416Z,60.78
2018-08-09T07:26:46.452Z,59.34
2018-08-09T07:27:46.483Z,58.52
2018-08-09T07:28:46.521Z,58.42
2018-08-09T07:29:46.553Z,58.03
2018-08-09T07:30:46.589Z,57.48
2018-08-09T07:31:46.367Z,57.38
2018-08-09T07:33:01.324Z,58.75
2018-08-09T07:33:46.758Z,58.89
2018-08-09T07:34:46.729Z,58.33
2018-08-09T07:35:46.766Z,58.62
2018-08-09T07:36:46.800Z,59.11
2018-08-09T07:37:46.579Z,56.89
2018-08-09T07:38:46.873Z,58.26
2018-08-09T07:39:46.749Z,58.33
2018-08-09T07:40:46.941Z,58.55
2018-08-09T07:43:47.048Z,55.7
2018-08-09T07:44:47.089Z,54.65
2018-08-09T07:45:46.863Z,54.75
2018-08-09T07:46:46.898Z,53.36
2018-08-09T07:47:47.194Z,53.36
2018-08-09T07:49:01.891Z,54.5
2018-08-09T07:49:47.271Z,56.48
2018-08-09T07:50:47.300Z,56.72
2018-08-09T07:51:47.333Z,55.87
2018-08-09T07:52:47.368Z,55.77
2018-08-09T07:53:47.148Z,54.99
2018-08-09T07:54:47.439Z,55.01
2018-08-09T07:56:47.511Z,56.82
2018-08-09T07:57:47.558Z,57.21
2018-08-09T07:58:47.586Z,57.31
2018-08-09T07:59:47.621Z,56.95
2018-08-09T08:00:47.660Z,58.38
2018-08-09T08:01:47.692Z,58.33
2018-08-09T08:02:47.753Z,59.14
2018-08-09T08:04:02.528Z,59.5
2018-08-09T08:04:47.810Z,59.99
2018-08-09T08:05:47.983Z,59.86
2018-08-09T08:06:47.613Z,59.14
2018-08-09T08:07:47.904Z,59.3
2018-08-09T08:08:47.943Z,58.36
2018-08-09T08:09:47.999Z,57.11
2018-08-09T08:10:48.011Z,55.6
2018-08-09T08:11:48.061Z,54.7
2018-08-09T08:13:48.117Z,53.26
2018-08-09T08:14:48.153Z,53.58
2018-08-09T08:15:48.195Z,53.38
2018-08-09T08:16:48.224Z,53.92
2018-08-09T08:17:48.264Z,54.97
2018-08-09T08:18:48.298Z,53.99
2018-08-09T08:19:48.339Z,53.82
2018-08-09T08:20:48.614Z,52.59
2018-08-09T08:21:48.407Z,51.34
2018-08-09T08:22:48.440Z,50.21
2018-08-09T08:23:48.216Z,49.55
2018-08-09T08:24:48.512Z,48.77
2018-08-09T08:25:48.551Z,49.48
2018-08-09T08:26:48.735Z,50.14
2018-08-09T08:27:48.620Z,50.42
2018-08-09T08:30:48.726Z,50.09
2018-08-09T08:31:48.759Z,49.73
2018-08-09T08:32:48.798Z,51.1
2018-08-09T08:33:48.835Z,52.3
2018-08-09T08:34:48.872Z,51.62
2018-08-09T08:36:03.670Z,51.72
2018-08-09T08:36:48.942Z,51.05
2018-08-09T08:37:48.977Z,50.32
2018-08-09T08:38:49.015Z,51
2018-08-09T08:39:49.047Z,51.1
2018-08-09T08:40:49.086Z,50.21
2018-08-09T08:41:49.813Z,50.12
2018-08-09T08:42:49.155Z,48.77
2018-08-09T08:43:49.189Z,48.49
2018-08-09T08:44:48.969Z,48.39
2018-08-09T08:45:49.265Z,48.69
2018-08-09T08:46:49.301Z,48.2
2018-08-09T08:47:49.338Z,48.14
2018-08-09T08:48:49.371Z,47.48
2018-08-09T08:49:49.410Z,48.17
2018-08-09T08:50:49.441Z,48.22
2018-08-09T08:52:04.142Z,47.63
2018-08-09T08:52:49.516Z,47.46
2018-08-09T08:53:49.550Z,47.26
2018-08-09T08:54:49.586Z,49.08
2018-08-09T08:55:49.622Z,50.09
2018-08-09T08:56:49.691Z,50.51
2018-08-09T08:57:49.697Z,51.37
2018-08-09T08:58:49.728Z,50.19
2018-08-09T08:59:49.508Z,51.47
2018-08-09T09:00:49.588Z,51.22
2018-08-09T09:02:49.872Z,49.82
2018-08-09T09:03:49.656Z,48.84
2018-08-09T09:04:49.946Z,49.08
2018-08-09T09:05:49.988Z,49.55
2018-08-09T09:06:50.016Z,49.26
2018-08-09T09:08:04.714Z,47.66
2018-08-09T09:08:50.096Z,47.58
2018-08-09T09:09:50.122Z,48.74
2018-08-09T09:10:50.158Z,48.99
2018-08-09T09:11:50.226Z,50.24
2018-08-09T09:12:50.233Z,49.99
2018-08-09T09:13:50.103Z,49.92
2018-08-09T09:14:50.300Z,48.96
2018-08-09T09:15:50.076Z,49.48
2018-08-09T09:16:50.113Z,50.34
2018-08-09T09:17:50.408Z,49.75
2018-08-09T09:18:50.444Z,49.48
2018-08-09T09:19:50.481Z,49.48
2018-08-09T09:20:50.513Z,47.92
2018-08-09T09:21:50.547Z,48.05
2018-08-09T09:22:50.581Z,48.13
2018-08-09T09:24:05.281Z,49.08
2018-08-09T09:24:50.651Z,48.59
2018-08-09T09:25:50.689Z,48
2018-08-09T09:26:50.467Z,48.91
2018-08-09T09:27:50.759Z,50.71
2018-08-09T09:28:50.536Z,50.39
2018-08-09T09:30:50.864Z,49.55
2018-08-09T09:31:50.899Z,49.68
2018-08-09T09:32:50.941Z,47.83
2018-08-09T09:33:50.969Z,47.58
2018-08-09T09:34:50.748Z,46.77
2018-08-09T09:35:50.781Z,46.87
2018-08-09T09:36:51.076Z,46.42
2018-08-09T09:37:51.107Z,45.53
2018-08-09T09:39:05.810Z,45.9
2018-08-09T09:39:51.183Z,46.32
2018-08-09T09:40:51.219Z,46.52
2018-08-09T09:41:51.250Z,45.34
2018-08-09T09:42:51.285Z,45.26
2018-08-09T09:43:51.325Z,45.63
2018-08-09T09:44:51.097Z,45.93
2018-08-09T09:45:51.391Z,46.32
2018-08-09T09:46:51.427Z,47.16
2018-08-09T09:47:51.464Z,47.75
2018-08-09T09:48:51.493Z,46.32
2018-08-09T09:49:51.624Z,47.68
2018-08-09T09:50:51.565Z,47.8
2018-08-09T09:51:51.603Z,49.68
2018-08-09T09:52:51.637Z,50.51
2018-08-09T09:53:51.675Z,49.9
2018-08-09T09:54:51.730Z,49.43
2018-08-09T09:55:51.747Z,48.69
2018-08-09T09:56:51.777Z,48.49
2018-08-09T09:57:51.809Z,49.16
2018-08-09T09:58:51.845Z,49.65
2018-08-09T09:59:51.880Z,50.02
2018-08-09T10:01:52.173Z,49.85
2018-08-09T10:02:51.981Z,49.68
2018-08-09T10:03:52.023Z,49.23
2018-08-09T10:04:52.050Z,47.28
2018-08-09T10:05:52.092Z,46.04
2018-08-09T10:06:52.118Z,48.17
2018-08-09T10:07:52.158Z,46.62
2018-08-09T10:08:52.190Z,45.93
2018-08-09T10:09:52.223Z,46.69
2018-08-09T10:11:06.924Z,46.99
2018-08-09T10:11:52.292Z,45.93
2018-08-09T10:12:52.435Z,46.04
2018-08-09T10:13:52.361Z,45.65
2018-08-09T10:14:52.509Z,45.46
2018-08-09T10:15:52.434Z,46.62
2018-08-09T10:16:52.214Z,46.52
2018-08-09T10:17:52.242Z,46.2
2018-08-09T10:18:52.538Z,46.67
2018-08-09T10:19:52.673Z,48.59
2018-08-09T10:20:52.607Z,47.51
2018-08-09T10:21:52.637Z,47.63
2018-08-09T10:22:52.679Z,46.77
2018-08-09T10:23:52.708Z,46
2018-08-09T10:24:52.739Z,45.43
2018-08-09T10:25:52.517Z,45.75
2018-08-09T10:27:07.473Z,47.09
2018-08-09T10:27:52.840Z,47.63
2018-08-09T10:28:52.881Z,47.73
2018-08-09T10:30:52.945Z,47.92
2018-08-09T10:31:52.980Z,48.71
2018-08-09T10:32:53.015Z,49.35
2018-08-09T10:33:53.047Z,50.04
2018-08-09T10:34:53.082Z,50.04
2018-08-09T10:35:52.860Z,49.82
2018-08-09T10:36:53.153Z,50.21
2018-08-09T10:37:52.930Z,49.65
2018-08-09T10:38:53.223Z,50.14
2018-08-09T10:39:53.256Z,50.34
2018-08-09T10:40:53.286Z,49.06
2018-08-09T10:41:53.320Z,50.12
2018-08-09T10:43:08.017Z,50.61
2018-08-09T10:43:53.386Z,51.07
2018-08-09T10:44:53.421Z,51.17
2018-08-09T10:45:53.458Z,51.64
2018-08-09T10:46:53.488Z,52.11
2018-08-09T10:47:53.523Z,51.34
2018-08-09T10:48:53.623Z,51.47
2018-08-09T10:50:53.623Z,50.21
2018-08-09T10:52:53.433Z,50.88
2018-08-09T10:53:53.721Z,50.02
2018-08-09T10:54:53.771Z,50.51
2018-08-09T10:55:53.799Z,51.3
2018-08-09T10:56:53.828Z,50.9
2018-08-09T10:57:53.861Z,50.98
2018-08-09T10:59:08.557Z,51
2018-08-09T10:59:53.927Z,51.1
2018-08-09T11:00:53.960Z,50.9
2018-08-09T11:01:53.738Z,49.46
2018-08-09T11:02:54.033Z,49.26
2018-08-09T11:04:54.090Z,49.04
2018-08-09T11:05:54.126Z,50.14
2018-08-09T11:06:53.900Z,49.95
2018-08-09T11:08:54.223Z,51.47
2018-08-09T11:09:54.256Z,51.07
2018-08-09T11:10:54.289Z,51.27
2018-08-09T11:11:54.067Z,50.98
2018-08-09T11:12:54.354Z,50.88
2018-08-09T11:14:09.054Z,49.41
2018-08-09T11:14:54.165Z,49.01
2018-08-09T11:15:54.459Z,49.31
2018-08-09T11:16:54.557Z,50.37
2018-08-09T11:17:54.265Z,50.27
2018-08-09T11:18:54.554Z,50.78
2018-08-09T11:19:54.332Z,49.41
2018-08-09T11:20:54.618Z,49.51
2018-08-09T11:21:54.653Z,50.19
2018-08-09T11:22:54.686Z,49.41
2018-08-09T11:23:54.462Z,49.43
2018-08-09T11:24:54.751Z,48.84
2018-08-09T11:25:54.527Z,49.13
2018-08-09T11:26:54.824Z,50.12
2018-08-09T11:27:54.590Z,49.73
2018-08-09T11:28:54.886Z,51.17
2018-08-09T11:29:54.668Z,50.09
2018-08-09T11:30:54.945Z,51.27
2018-08-09T11:31:54.722Z,50.78
2018-08-09T11:32:55.010Z,50.59
2018-08-09T11:33:55.058Z,51
2018-08-09T11:34:55.072Z,50.12
2018-08-09T11:35:55.106Z,48.65
2018-08-09T11:36:55.139Z,49.43
2018-08-09T11:37:55.170Z,49.53
2018-08-09T11:40:55.011Z,51.74
2018-08-09T11:41:55.300Z,52.03
2018-08-09T11:42:55.357Z,51.91
2018-08-09T11:43:55.388Z,52.8
2018-08-09T11:44:55.397Z,52.69
2018-08-09T11:46:10.093Z,51.81
2018-08-09T11:46:55.202Z,52.23
2018-08-09T11:47:55.501Z,51.34
2018-08-09T11:48:55.524Z,51.17
2018-08-09T11:49:55.555Z,51.37
2018-08-09T11:50:55.594Z,51.54
2018-08-09T11:51:55.364Z,51.34
2018-08-09T11:52:55.654Z,51.72
2018-08-09T11:53:55.688Z,52.92
2018-08-09T11:55:55.745Z,52.23
2018-08-09T11:56:55.888Z,51.34
2018-08-09T11:57:55.813Z,51.25
2018-08-09T11:58:55.846Z,51.84
2018-08-09T11:59:55.877Z,51.76
2018-08-09T12:00:55.908Z,51.37
2018-08-09T12:02:10.605Z,51.84
2018-08-09T12:02:55.724Z,51.74
2018-08-09T12:03:56.012Z,51.84
2018-08-09T12:04:56.039Z,52.82
2018-08-09T12:05:56.069Z,52.72
2018-08-09T12:06:56.101Z,53.11
2018-08-09T12:07:56.133Z,51.84
2018-08-09T12:08:56.166Z,50.98
2018-08-09T12:09:56.195Z,51.76
2018-08-09T12:10:55.970Z,51.34
2018-08-09T12:12:56.292Z,51.37
2018-08-09T12:13:56.334Z,51.5
2018-08-09T12:14:56.451Z,51.17
2018-08-09T12:15:56.389Z,51
2018-08-09T12:16:56.420Z,50.68
2018-08-09T12:18:11.115Z,51.17
2018-08-09T12:18:56.480Z,49.82
2018-08-09T12:19:56.514Z,50.12
2018-08-09T12:21:56.578Z,51.07
2018-08-09T12:22:56.608Z,50.98
2018-08-09T12:23:56.642Z,51.25
2018-08-09T12:24:56.674Z,50.98
2018-08-09T12:25:56.704Z,50.98
2018-08-09T12:26:56.818Z,51.67
2018-08-09T12:27:56.770Z,51.17
2018-08-09T12:28:56.799Z,50.98
2018-08-09T12:29:56.831Z,51.27
2018-08-09T12:30:56.863Z,50.68
2018-08-09T12:31:56.947Z,50.49
2018-08-09T12:32:56.669Z,50.39
2018-08-09T12:34:11.626Z,51.15
2018-08-09T12:34:56.990Z,50.59
2018-08-09T12:35:56.765Z,49.51
2018-08-09T12:36:57.053Z,49.9
2018-08-09T12:37:57.091Z,48.74
2018-08-09T12:38:57.116Z,49.73
2018-08-09T12:39:57.148Z,48.94
2018-08-09T12:40:57.178Z,48.74
2018-08-09T12:41:57.215Z,48.65
2018-08-09T12:43:57.017Z,48.65
2018-08-09T12:44:57.049Z,47.86
2018-08-09T12:45:57.345Z,48.15
2018-08-09T12:46:57.115Z,47.96
2018-08-09T12:47:57.404Z,48.55
2018-08-09T12:49:12.105Z,48.55
2018-08-09T12:49:57.465Z,48.65
2018-08-09T12:50:57.497Z,48.25
2018-08-09T12:51:57.540Z,47.86
2018-08-09T12:52:57.562Z,48.05
2018-08-09T12:53:57.593Z,47.86
2018-08-09T12:54:57.366Z,47.19
2018-08-09T12:55:57.402Z,46.11
2018-08-09T12:56:57.431Z,46.9
2018-08-09T12:57:57.720Z,46.8
2018-08-09T12:59:57.856Z,46.9
2018-08-09T13:00:57.816Z,46.5
2018-08-09T13:01:57.854Z,46.28
2018-08-09T13:02:57.879Z,46.19
2018-08-09T13:03:57.919Z,46.21
2018-08-09T13:04:57.942Z,45.92
2018-08-09T13:05:57.716Z,45.92
2018-08-09T13:06:58.005Z,46.23
2018-08-09T13:07:58.043Z,45.94
2018-08-09T13:08:58.069Z,44.85
2018-08-09T13:09:58.100Z,44.76
2018-08-09T13:10:58.170Z,44.56
2018-08-09T13:11:58.165Z,44.05
2018-08-09T13:12:58.202Z,44.46
2018-08-09T13:13:58.232Z,45.05
2018-08-09T13:14:58.263Z,44.46
2018-08-09T13:16:58.438Z,43.89
2018-08-09T13:17:58.358Z,43.89
2018-08-09T13:18:58.394Z,43.5
2018-08-09T13:19:58.417Z,44.07
2018-08-09T13:21:13.115Z,43.95
2018-08-09T13:21:58.487Z,44.66
2018-08-09T13:22:58.515Z,44.24
2018-08-09T13:23:58.548Z,44.54
2018-08-09T13:24:58.579Z,46.11
2018-08-09T13:25:58.611Z,44.44
2018-08-09T13:26:58.641Z,44.44
2018-08-09T13:27:58.671Z,43.38
2018-08-09T13:28:58.705Z,43.87
2018-08-09T13:29:58.479Z,43.26
2018-08-09T13:31:58.810Z,42.69
2018-08-09T13:32:58.831Z,42.99
2018-08-09T13:33:58.880Z,42.57
2018-08-09T13:34:58.893Z,43.46
2018-08-09T13:35:58.927Z,42.77
2018-08-09T13:37:13.624Z,41.8
2018-08-09T13:37:59.001Z,41.9
2018-08-09T13:38:59.023Z,40.82
2018-08-09T13:39:58.798Z,41.51
2018-08-09T13:40:59.086Z,41
2018-08-09T13:41:58.860Z,40.92
2018-08-09T13:42:59.150Z,41.22
2018-08-09T13:43:59.185Z,41.02
2018-08-09T13:44:59.227Z,41.02
2018-08-09T13:45:59.244Z,40.72
2018-08-09T13:46:59.279Z,41.02